createdAt,value
2022-12-03T00:00:12.168Z,100419.81
2022-12-03T00:02:41.378Z,100423.97
2022-12-03T00:05:09.954Z,100421.91
2022-12-03T00:07:37.632Z,100420.88
2022-12-03T00:10:06.187Z,100425.53
2022-12-03T00:12:33.834Z,100424.22
2022-12-03T00:15:01.335Z,100433.81
2022-12-03T00:17:28.960Z,100430.69
2022-12-03T00:19:56.337Z,100427.75
2022-12-03T00:22:24.084Z,100429.38
2022-12-03T00:24:51.680Z,100425.50
2022-12-03T00:27:19.841Z,100435.91
2022-12-03T00:29:47.312Z,100436.97
2022-12-03T00:32:15.099Z,100429.66
2022-12-03T00:34:42.546Z,100437.97
2022-12-03T00:37:09.972Z,100439.53
2022-12-03T00:39:37.341Z,100442.16
2022-12-03T00:42:05.343Z,100443.69
2022-12-03T00:44:32.852Z,100444.75
2022-12-03T00:47:00.127Z,100439.03
2022-12-03T00:49:27.856Z,100444.22
2022-12-03T00:51:55.349Z,100444.44
2022-12-03T00:54:28.351Z,100449.38
2022-12-03T00:56:59.115Z,100442.88
2022-12-03T00:59:26.349Z,100445.78
2022-12-03T01:01:53.785Z,100437.72
2022-12-03T01:04:21.236Z,100436.94
2022-12-03T01:06:48.845Z,100436.16
2022-12-03T01:09:16.355Z,100434.34
2022-12-03T01:11:43.749Z,100432.75
2022-12-03T01:14:17.995Z,100431.50
2022-12-03T01:16:46.124Z,100438.00
2022-12-03T01:19:17.330Z,100438.75
2022-12-03T01:21:46.755Z,100441.09
2022-12-03T01:24:14.361Z,100436.97
2022-12-03T01:26:42.129Z,100435.91
2022-12-03T01:29:09.787Z,100445.28
2022-12-03T01:31:55.735Z,100445.53
2022-12-03T01:34:23.230Z,100443.47
2022-12-03T01:36:52.882Z,100442.72
2022-12-03T01:39:20.382Z,100444.75
2022-12-03T01:41:49.048Z,100443.72
2022-12-03T01:44:35.771Z,100450.50
2022-12-03T01:47:05.947Z,100449.94
2022-12-03T01:49:50.144Z,100449.41
2022-12-03T01:52:22.147Z,100456.41
2022-12-03T01:54:58.111Z,100448.88
2022-12-03T01:57:28.076Z,100458.47
2022-12-03T01:59:56.896Z,100455.56
2022-12-03T02:02:31.778Z,100453.50
2022-12-03T02:05:00.283Z,100451.94
2022-12-03T02:07:28.854Z,100450.66
2022-12-03T02:09:58.248Z,100443.66
2022-12-03T02:12:32.665Z,100443.66
2022-12-03T02:15:00.392Z,100434.84
2022-12-03T02:17:28.387Z,100437.41
2022-12-03T02:19:56.789Z,100433.78
2022-12-03T02:22:42.268Z,100438.44
2022-12-03T02:25:17.910Z,100440.00
2022-12-03T02:27:45.604Z,100443.13
2022-12-03T02:30:15.536Z,100441.59
2022-12-03T02:32:43.175Z,100437.97
2022-12-03T02:35:18.178Z,100440.53
2022-12-03T02:37:46.801Z,100433.25
2022-12-03T02:40:23.397Z,100434.28
2022-12-03T02:42:52.054Z,100430.91
2022-12-03T02:45:45.405Z,100433.50
2022-12-03T02:48:16.403Z,100441.00
2022-12-03T02:50:48.058Z,100440.53
2022-12-03T02:53:21.403Z,100447.03
2022-12-03T02:55:50.060Z,100442.09
2022-12-03T02:58:18.812Z,100439.00
2022-12-03T03:00:46.908Z,100434.56
2022-12-03T03:03:14.638Z,100436.38
2022-12-03T03:05:42.410Z,100442.09
2022-12-03T03:08:10.957Z,100430.13
2022-12-03T03:10:39.645Z,100437.69
2022-12-03T03:13:14.214Z,100434.06
2022-12-03T03:15:42.377Z,100432.72
2022-12-03T03:18:11.040Z,100442.06
2022-12-03T03:20:39.076Z,100439.94
2022-12-03T03:23:14.941Z,100435.25
2022-12-03T03:25:45.651Z,100433.47
2022-12-03T03:28:13.945Z,100434.78
2022-12-03T03:30:41.830Z,100442.06
2022-12-03T03:33:09.832Z,100443.91
2022-12-03T03:35:37.833Z,100440.53
2022-12-03T03:38:05.424Z,100437.94
2022-12-03T03:40:33.205Z,100444.94
2022-12-03T03:43:01.581Z,100443.59
2022-12-03T03:45:29.815Z,100445.19
2022-12-03T03:47:59.840Z,100433.72
2022-12-03T03:50:28.778Z,100433.72
2022-12-03T03:52:56.934Z,100429.03
2022-12-03T03:55:24.846Z,100441.28
2022-12-03T03:57:52.433Z,100436.34
2022-12-03T04:00:20.358Z,100441.06
2022-12-03T04:02:47.959Z,100441.06
2022-12-03T04:05:20.850Z,100430.91
2022-12-03T04:07:48.471Z,100431.19
2022-12-03T04:10:34.949Z,100440.56
2022-12-03T04:13:02.680Z,100436.91
2022-12-03T04:15:30.297Z,100438.47
2022-12-03T04:18:16.108Z,100441.06
2022-12-03T04:20:44.240Z,100434.84
2022-12-03T04:23:11.556Z,100440.81
2022-12-03T04:25:57.966Z,100445.22
2022-12-03T04:28:44.120Z,100441.06
2022-12-03T04:31:30.363Z,100447.28
2022-12-03T04:34:15.972Z,100437.44
2022-12-03T04:36:43.610Z,100438.75
2022-12-03T04:39:11.261Z,100434.31
2022-12-03T04:41:39.222Z,100430.72
2022-12-03T04:44:25.128Z,100434.31
2022-12-03T04:46:52.616Z,100435.91
2022-12-03T04:49:20.268Z,100442.16
2022-12-03T04:51:47.882Z,100438.78
2022-12-03T04:54:15.881Z,100441.13
2022-12-03T04:56:43.273Z,100448.41
2022-12-03T04:59:15.777Z,100453.09
2022-12-03T05:01:44.223Z,100452.53
2022-12-03T05:04:12.471Z,100447.63
2022-12-03T05:06:40.713Z,100450.22
2022-12-03T05:09:09.144Z,100452.03
2022-12-03T05:11:36.628Z,100454.16
2022-12-03T05:14:04.147Z,100457.25
2022-12-03T05:16:32.040Z,100458.03
2022-12-03T05:18:59.632Z,100459.06
2022-12-03T05:21:27.155Z,100460.66
2022-12-03T05:23:54.895Z,100455.19
2022-12-03T05:26:22.636Z,100463.75
2022-12-03T05:28:50.473Z,100472.84
2022-12-03T05:31:18.239Z,100471.81
2022-12-03T05:33:46.139Z,100473.91
2022-12-03T05:36:13.642Z,100471.84
2022-12-03T05:38:41.164Z,100464.06
2022-12-03T05:41:28.305Z,100466.66
2022-12-03T05:43:55.914Z,100458.84
2022-12-03T05:46:23.466Z,100464.59
2022-12-03T05:48:51.310Z,100462.50
2022-12-03T05:51:19.026Z,100464.84
2022-12-03T05:53:46.652Z,100473.97
2022-12-03T05:56:14.175Z,100474.75
2022-12-03T05:58:41.746Z,100475.50
2022-12-03T06:01:09.157Z,100477.06
2022-12-03T06:03:36.599Z,100479.44
2022-12-03T06:06:04.492Z,100488.53
2022-12-03T06:08:31.923Z,100495.31
2022-12-03T06:10:59.660Z,100488.53
2022-12-03T06:13:27.184Z,100494.78
2022-12-03T06:15:55.049Z,100499.47
2022-12-03T06:18:22.497Z,100499.75
2022-12-03T06:20:50.175Z,100490.88
2022-12-03T06:23:18.043Z,100486.41
2022-12-03T06:25:45.933Z,100484.09
2022-12-03T06:28:13.195Z,100472.16
2022-12-03T06:30:40.670Z,100471.88
2022-12-03T06:33:08.197Z,100479.69
2022-12-03T06:35:35.673Z,100477.13
2022-12-03T06:38:03.343Z,100478.66
2022-12-03T06:40:31.054Z,100478.69
2022-12-03T06:42:58.507Z,100484.91
2022-12-03T06:45:26.153Z,100479.72
2022-12-03T06:47:53.777Z,100476.09
2022-12-03T06:50:21.367Z,100476.31
2022-12-03T06:52:49.063Z,100477.13
2022-12-03T06:55:16.686Z,100486.47
2022-12-03T06:57:44.212Z,100489.31
2022-12-03T07:00:12.675Z,100482.81
2022-12-03T07:02:40.243Z,100490.63
2022-12-03T07:05:08.518Z,100488.56
2022-12-03T07:07:35.809Z,100488.84
2022-12-03T07:10:03.695Z,100482.84
2022-12-03T07:12:32.070Z,100483.38
2022-12-03T07:14:59.687Z,100482.09
2022-12-03T07:17:27.165Z,100492.00
2022-12-03T07:19:54.889Z,100492.75
2022-12-03T07:22:22.168Z,100492.75
2022-12-03T07:24:49.700Z,100491.19
2022-12-03T07:27:17.232Z,100494.84
2022-12-03T07:29:45.079Z,100483.16
2022-12-03T07:32:12.708Z,100484.97
2022-12-03T07:34:40.237Z,100492.00
2022-12-03T07:37:07.648Z,100492.75
2022-12-03T07:39:35.225Z,100494.34
2022-12-03T07:42:02.645Z,100500.84
2022-12-03T07:44:32.034Z,100494.88
2022-12-03T07:46:59.787Z,100489.69
2022-12-03T07:49:27.199Z,100491.50
2022-12-03T07:51:54.717Z,100489.66
2022-12-03T07:54:22.189Z,100501.63
2022-12-03T07:56:49.719Z,100496.69
2022-12-03T07:59:18.103Z,100498.00
2022-12-03T08:01:46.311Z,100500.06
2022-12-03T08:04:15.100Z,100504.25
2022-12-03T08:06:42.545Z,100498.03
2022-12-03T08:09:15.773Z,100503.22
2022-12-03T08:11:45.547Z,100502.19
2022-12-03T08:14:17.262Z,100493.31
2022-12-03T08:16:46.228Z,100505.81
2022-12-03T08:19:17.762Z,100501.16
2022-12-03T08:21:45.731Z,100499.84
2022-12-03T08:24:18.829Z,100506.09
2022-12-03T08:26:48.113Z,100495.97
2022-12-03T08:29:18.735Z,100500.63
2022-12-03T08:31:52.348Z,100492.06
2022-12-03T08:34:22.737Z,100503.22
2022-12-03T08:36:51.937Z,100501.94
2022-12-03T08:39:19.427Z,100505.56
2022-12-03T08:42:13.826Z,100511.03
2022-12-03T08:44:41.732Z,100508.44
2022-12-03T08:47:13.281Z,100510.03
2022-12-03T08:49:41.128Z,100500.59
2022-12-03T08:52:20.751Z,100509.72
2022-12-03T08:54:57.424Z,100504.25
2022-12-03T08:57:34.128Z,100508.41
2022-12-03T09:00:24.141Z,100510.97
2022-12-03T09:02:54.135Z,100521.38
2022-12-03T09:05:34.874Z,100523.16
2022-12-03T09:08:02.866Z,100522.38
2022-12-03T09:10:30.435Z,100518.13
2022-12-03T09:12:58.137Z,100520.16
2022-12-03T09:15:25.760Z,100519.03
2022-12-03T09:17:53.761Z,100512.94
2022-12-03T09:20:21.735Z,100509.13
2022-12-03T09:22:49.348Z,100505.78
2022-12-03T09:25:17.266Z,100509.88
2022-12-03T09:27:44.708Z,100507.72
2022-12-03T09:30:12.613Z,100504.06
2022-12-03T09:32:40.465Z,100507.97
2022-12-03T09:35:08.760Z,100509.44
2022-12-03T09:37:36.153Z,100505.56
2022-12-03T09:40:04.614Z,100503.69
2022-12-03T09:42:32.472Z,100500.03
2022-12-03T09:45:00.477Z,100500.56
2022-12-03T09:47:27.778Z,100508.72
2022-12-03T09:49:56.278Z,100500.63
2022-12-03T09:52:28.168Z,100485.91
2022-12-03T09:54:55.978Z,100481.34
2022-12-03T09:57:23.786Z,100495.13
2022-12-03T09:59:51.587Z,100488.38
2022-12-03T10:02:25.786Z,100497.50
2022-12-03T10:04:54.199Z,100501.31
2022-12-03T10:07:21.889Z,100492.59
2022-12-03T10:09:49.789Z,100487.75
2022-12-03T10:12:21.784Z,100474.97
2022-12-03T10:14:49.792Z,100467.25
2022-12-03T10:17:17.851Z,100471.91
2022-12-03T10:19:45.795Z,100476.88
2022-12-03T10:22:13.797Z,100485.44
2022-12-03T10:24:41.522Z,100487.50
2022-12-03T10:27:29.802Z,100474.25
2022-12-03T10:29:59.081Z,100470.44
2022-12-03T10:32:46.642Z,100464.84
2022-12-03T10:35:27.177Z,100460.81
2022-12-03T10:37:57.508Z,100465.34
2022-12-03T10:40:27.806Z,100451.34
2022-12-03T10:43:19.767Z,100453.84
2022-12-03T10:45:48.889Z,100450.94
2022-12-03T10:48:16.810Z,100447.25
2022-12-03T10:51:04.508Z,100452.03
2022-12-03T10:53:34.509Z,100442.59
2022-12-03T10:56:05.364Z,100448.13
2022-12-03T10:58:37.823Z,100446.16
2022-12-03T11:01:19.911Z,100439.03
2022-12-03T11:03:48.161Z,100429.84
2022-12-03T11:06:18.370Z,100436.16
2022-12-03T11:08:54.754Z,100427.94
2022-12-03T11:11:29.823Z,100426.69
2022-12-03T11:14:01.725Z,100419.19
2022-12-03T11:16:41.521Z,100418.03
2022-12-03T11:19:18.198Z,100417.84
2022-12-03T11:22:04.636Z,100417.81
2022-12-03T11:24:33.723Z,100413.22
2022-12-03T11:27:01.111Z,100413.66
2022-12-03T11:29:48.522Z,100406.47
2022-12-03T11:32:43.490Z,100402.44
2022-12-03T11:35:37.531Z,100410.84
2022-12-03T11:38:38.751Z,100409.72
2022-12-03T11:41:18.208Z,100402.19
2022-12-03T11:43:57.644Z,100392.19
2022-12-03T11:46:26.186Z,100391.22
2022-12-03T11:48:55.559Z,100392.19
2022-12-03T11:51:25.121Z,100391.19
2022-12-03T11:53:54.541Z,100393.69
2022-12-03T11:56:29.848Z,100393.75
2022-12-03T11:59:02.542Z,100398.38
2022-12-03T12:01:39.116Z,100393.69
2022-12-03T12:04:09.187Z,100392.19
2022-12-03T12:06:42.469Z,100389.28
2022-12-03T12:09:10.129Z,100395.81
2022-12-03T12:11:40.855Z,100389.63
2022-12-03T12:14:09.660Z,100388.38
2022-12-03T12:16:51.127Z,100372.91
2022-12-03T12:19:38.130Z,100379.69
2022-12-03T12:22:26.504Z,100373.19
2022-12-03T12:24:54.582Z,100367.91
2022-12-03T12:27:34.560Z,100358.81
2022-12-03T12:30:08.134Z,100355.44
2022-12-03T12:32:45.876Z,100358.59
2022-12-03T12:35:19.562Z,100358.13
2022-12-03T12:38:00.176Z,100356.75
2022-12-03T12:40:30.743Z,100352.53
2022-12-03T12:43:14.362Z,100354.72
2022-12-03T12:45:43.434Z,100352.28
2022-12-03T12:48:10.730Z,100356.25
2022-12-03T12:50:38.881Z,100348.50
2022-12-03T12:53:26.398Z,100354.50
2022-12-03T12:56:01.009Z,100351.03
2022-12-03T12:58:32.991Z,100350.81
2022-12-03T13:01:05.638Z,100349.06
2022-12-03T13:03:35.575Z,100347.34
2022-12-03T13:06:03.669Z,100351.03
2022-12-03T13:08:43.885Z,100350.16
2022-12-03T13:11:25.670Z,100356.47
2022-12-03T13:13:53.573Z,100347.13
2022-12-03T13:16:32.205Z,100340.63
2022-12-03T13:19:01.152Z,100339.38
2022-12-03T13:21:39.202Z,100339.28
2022-12-03T13:24:36.901Z,100354.50
2022-12-03T13:27:22.254Z,100342.94
2022-12-03T13:30:14.684Z,100353.28
2022-12-03T13:32:42.898Z,100347.34
2022-12-03T13:35:10.465Z,100353.66
2022-12-03T13:37:38.155Z,100364.28
2022-12-03T13:40:21.904Z,100364.56
2022-12-03T13:42:49.163Z,100359.63
2022-12-03T13:45:19.906Z,100358.44
2022-12-03T13:47:48.473Z,100359.69
2022-12-03T13:50:35.613Z,100357.97
2022-12-03T13:53:06.160Z,100360.59
2022-12-03T13:55:33.678Z,100354.38
2022-12-03T13:58:01.122Z,100364.56
2022-12-03T14:00:28.748Z,100362.72
2022-12-03T14:02:56.484Z,100363.16
2022-12-03T14:05:23.824Z,100376.00
2022-12-03T14:07:51.210Z,100371.53
2022-12-03T14:10:18.918Z,100373.63
2022-12-03T14:12:46.471Z,100371.84
2022-12-03T14:15:13.803Z,100374.53
2022-12-03T14:17:41.276Z,100371.91
2022-12-03T14:20:09.414Z,100381.88
2022-12-03T14:22:39.494Z,100373.88
2022-12-03T14:25:07.932Z,100372.38
2022-12-03T14:27:53.877Z,100363.91
2022-12-03T14:30:21.067Z,100366.13
2022-12-03T14:32:48.930Z,100372.50
2022-12-03T14:35:16.418Z,100376.66
2022-12-03T14:37:43.934Z,100369.63
2022-12-03T14:40:14.303Z,100375.09
2022-12-03T14:42:45.507Z,100382.38
2022-12-03T14:45:12.712Z,100375.31
2022-12-03T14:47:40.179Z,100372.16
2022-12-03T14:50:08.179Z,100375.03
2022-12-03T14:52:35.327Z,100379.25
2022-12-03T14:55:02.731Z,100381.94
2022-12-03T14:57:30.181Z,100377.81
2022-12-03T14:59:57.995Z,100381.25
2022-12-03T15:02:25.240Z,100371.94
2022-12-03T15:04:52.951Z,100380.59
2022-12-03T15:07:20.186Z,100380.03
2022-12-03T15:09:47.704Z,100374.16
2022-12-03T15:12:15.188Z,100382.47
2022-12-03T15:14:43.004Z,100374.38
2022-12-03T15:17:10.557Z,100364.47
2022-12-03T15:19:37.850Z,100368.13
2022-12-03T15:22:05.179Z,100371.56
2022-12-03T15:24:32.971Z,100379.13
2022-12-03T15:27:00.540Z,100379.13
2022-12-03T15:29:27.742Z,100385.97
2022-12-03T15:31:55.400Z,100386.78
2022-12-03T15:34:23.474Z,100383.44
2022-12-03T15:36:51.563Z,100384.31
2022-12-03T15:39:18.967Z,100384.94
2022-12-03T15:41:46.720Z,100381.84
2022-12-03T15:44:14.198Z,100389.47
2022-12-03T15:46:41.438Z,100391.63
2022-12-03T15:49:08.972Z,100386.44
2022-12-03T15:51:36.410Z,100384.63
2022-12-03T15:54:03.830Z,100372.41
2022-12-03T15:56:31.202Z,100377.38
2022-12-03T15:58:58.662Z,100386.56
2022-12-03T16:01:26.003Z,100383.25
2022-12-03T16:03:53.468Z,100380.09
2022-12-03T16:06:20.982Z,100374.09
2022-12-03T16:08:48.560Z,100374.41
2022-12-03T16:11:15.822Z,100377.28
2022-12-03T16:13:43.209Z,100378.63
2022-12-03T16:16:10.642Z,100384.16
2022-12-03T16:18:38.211Z,100383.06
2022-12-03T16:21:05.425Z,100385.69
2022-12-03T16:23:32.770Z,100389.38
2022-12-03T16:26:00.332Z,100392.00
2022-12-03T16:28:27.949Z,100395.63
2022-12-03T16:30:55.286Z,100388.34
2022-12-03T16:33:27.533Z,100388.34
2022-12-03T16:35:55.148Z,100383.94
2022-12-03T16:38:23.005Z,100386.31
2022-12-03T16:40:50.297Z,100388.91
2022-12-03T16:43:17.889Z,100392.56
2022-12-03T16:45:51.742Z,100379.03
2022-12-03T16:48:19.345Z,100391.03
2022-12-03T16:50:46.927Z,100396.25
2022-12-03T16:53:15.008Z,100397.28
2022-12-03T16:55:42.393Z,100393.91
2022-12-03T16:58:09.868Z,100390.75
2022-12-03T17:00:37.132Z,100398.88
2022-12-03T17:03:04.668Z,100394.97
2022-12-03T17:05:32.139Z,100390.28
2022-12-03T17:07:59.637Z,100398.34
2022-12-03T17:10:27.271Z,100400.94
2022-12-03T17:13:09.326Z,100399.41
2022-12-03T17:15:38.244Z,100399.91
2022-12-03T17:18:06.141Z,100406.16
2022-12-03T17:20:33.952Z,100401.72
2022-12-03T17:23:01.146Z,100398.88
2022-12-03T17:25:28.793Z,100393.13
2022-12-03T17:27:56.323Z,100395.22
2022-12-03T17:30:23.793Z,100398.31
2022-12-03T17:32:51.328Z,100401.97
2022-12-03T17:35:19.253Z,100393.66
2022-12-03T17:37:47.030Z,100409.28
2022-12-03T17:40:16.031Z,100401.47
2022-12-03T17:42:43.553Z,100398.09
2022-12-03T17:45:11.340Z,100403.59
2022-12-03T17:47:38.838Z,100389.00
2022-12-03T17:50:07.337Z,100389.78
2022-12-03T17:52:35.051Z,100402.34
2022-12-03T17:55:11.234Z,100395.56
2022-12-03T17:57:40.508Z,100397.38
2022-12-03T18:00:09.167Z,100399.47
2022-12-03T18:02:36.430Z,100399.75
2022-12-03T18:05:04.263Z,100399.00
2022-12-03T18:07:31.755Z,100394.81
2022-12-03T18:09:59.420Z,100396.66
2022-12-03T18:12:27.038Z,100399.00
2022-12-03T18:14:54.350Z,100394.81
2022-12-03T18:17:21.991Z,100392.75
2022-12-03T18:19:49.354Z,100391.47
2022-12-03T18:22:16.889Z,100391.47
2022-12-03T18:24:46.221Z,100391.97
2022-12-03T18:27:15.183Z,100386.28
2022-12-03T18:29:42.738Z,100385.25
2022-12-03T18:32:27.082Z,100385.00
2022-12-03T18:34:57.023Z,100386.53
2022-12-03T18:37:27.364Z,100386.53
2022-12-03T18:39:55.497Z,100388.63
2022-12-03T18:42:23.460Z,100391.50
2022-12-03T18:44:55.193Z,100397.22
2022-12-03T18:47:24.544Z,100392.53
2022-12-03T18:49:52.053Z,100395.41
2022-12-03T18:52:22.070Z,100392.28
2022-12-03T18:54:49.750Z,100392.56
2022-12-03T18:57:17.199Z,100403.22
2022-12-03T18:59:44.380Z,100393.31
2022-12-03T19:05:09.419Z,100398.03
2022-12-03T19:07:37.285Z,100406.88
2022-12-03T19:10:05.270Z,100394.63
2022-12-03T19:12:33.084Z,100388.88
2022-12-03T19:15:00.391Z,100386.28
2022-12-03T19:17:28.151Z,100382.94
2022-12-03T19:19:55.882Z,100388.63
2022-12-03T19:22:24.400Z,100387.59
2022-12-03T19:24:52.088Z,100394.88
2022-12-03T19:27:19.767Z,100395.16
2022-12-03T19:29:50.278Z,100395.41
2022-12-03T19:32:17.910Z,100400.63
2022-12-03T19:34:45.399Z,100402.72
2022-12-03T19:37:13.050Z,100402.72
2022-12-03T19:39:40.418Z,100401.16
2022-12-03T19:42:07.697Z,100410.00
2022-12-03T19:44:35.098Z,100415.22
2022-12-03T19:47:02.952Z,100411.81
2022-12-03T19:49:30.405Z,100412.09
2022-12-03T19:51:58.105Z,100419.38
2022-12-03T19:54:25.386Z,100413.16
2022-12-03T19:56:52.922Z,100412.09
2022-12-03T19:59:20.326Z,100420.41
2022-12-03T20:01:47.807Z,100416.78
2022-12-03T20:04:15.429Z,100419.09
2022-12-03T20:06:42.959Z,100420.97
2022-12-03T20:09:13.387Z,100416.78
2022-12-03T20:11:41.936Z,100420.97
2022-12-03T20:14:11.871Z,100413.69
2022-12-03T20:16:39.436Z,100412.34
2022-12-03T20:19:08.247Z,100415.75
2022-12-03T20:21:37.229Z,100412.63
2022-12-03T20:24:04.984Z,100421.75
2022-12-03T20:26:32.617Z,100420.41
2022-12-03T20:29:00.353Z,100417.03
2022-12-03T20:31:30.533Z,100417.28
2022-12-03T20:34:00.432Z,100411.81
2022-12-03T20:36:29.134Z,100404.78
2022-12-03T20:38:59.004Z,100411.28
2022-12-03T20:41:26.736Z,100403.19
2022-12-03T20:43:54.444Z,100421.94
2022-12-03T20:46:26.840Z,100417.78
2022-12-03T20:48:55.155Z,100418.28
2022-12-03T20:51:24.892Z,100419.84
2022-12-03T20:53:52.635Z,100416.75
2022-12-03T20:56:28.995Z,100419.59
2022-12-03T20:58:56.744Z,100422.22
2022-12-03T21:01:26.846Z,100419.34
2022-12-03T21:03:56.140Z,100418.84
2022-12-03T21:06:26.015Z,100422.22
2022-12-03T21:08:54.128Z,100421.19
2022-12-03T21:11:24.455Z,100412.31
2022-12-03T21:13:53.007Z,100412.81
2022-12-03T21:16:45.568Z,100413.34
2022-12-03T21:19:10.899Z,100404.75
2022-12-03T21:21:38.461Z,100402.41
2022-12-03T21:24:06.320Z,100407.34
2022-12-03T21:26:34.022Z,100409.97
2022-12-03T21:29:01.288Z,100400.84
2022-12-03T21:31:30.550Z,100406.56
2022-12-03T21:33:58.156Z,100405.53
2022-12-03T21:36:26.157Z,100398.50
2022-12-03T21:38:53.455Z,100413.59
2022-12-03T21:41:20.910Z,100411.53
2022-12-03T21:43:48.242Z,100413.88
2022-12-03T21:47:09.144Z,100408.94
2022-12-03T21:49:04.970Z,100409.44
2022-12-03T21:51:32.776Z,100402.16
2022-12-03T21:54:00.170Z,100399.00
2022-12-03T21:56:27.304Z,100402.66
2022-12-03T21:58:55.171Z,100392.22
2022-12-03T22:01:24.082Z,100396.91
2022-12-03T22:03:51.992Z,100392.75
2022-12-03T22:06:20.010Z,100397.19
2022-12-03T22:08:48.150Z,100393.25
2022-12-03T22:11:21.012Z,100399.50
2022-12-03T22:13:48.925Z,100390.91
2022-12-03T22:16:22.170Z,100385.44
2022-12-03T22:18:50.020Z,100384.38
2022-12-03T22:21:19.935Z,100390.09
2022-12-03T22:23:47.796Z,100394.28
2022-12-03T22:26:17.932Z,100392.22
2022-12-03T22:28:46.857Z,100394.78
2022-12-03T22:31:14.946Z,100387.97
2022-12-03T22:33:43.802Z,100392.66
2022-12-03T22:36:19.682Z,100384.84
2022-12-03T22:38:47.199Z,100378.59
2022-12-03T22:41:16.035Z,100372.88
2022-12-03T22:43:43.482Z,100382.53
2022-12-03T22:46:12.838Z,100384.63
2022-12-03T22:48:42.033Z,100371.84
2022-12-03T22:51:17.505Z,100373.69
2022-12-03T22:53:45.198Z,100371.06
2022-12-03T22:56:13.015Z,100371.31
2022-12-03T22:58:40.835Z,100377.03
2022-12-03T23:01:09.052Z,100377.03
2022-12-03T23:03:37.120Z,100381.97
2022-12-03T23:06:11.343Z,100375.44
2022-12-03T23:08:39.051Z,100375.44
2022-12-03T23:11:07.486Z,100371.78
2022-12-03T23:13:35.512Z,100366.31
2022-12-03T23:16:03.381Z,100371.22
2022-12-03T23:18:31.214Z,100377.47
2022-12-03T23:20:58.486Z,100372.25
2022-12-03T23:23:27.601Z,100361.28
2022-12-03T23:26:07.449Z,100368.06
2022-12-03T23:28:37.219Z,100362.53
2022-12-03T23:31:06.138Z,100361.25
2022-12-03T23:33:38.122Z,100359.91
2022-12-03T23:36:07.070Z,100355.47
2022-12-03T23:38:34.961Z,100355.00
2022-12-03T23:41:06.612Z,100353.97
2022-12-03T23:43:35.216Z,100347.19
2022-12-03T23:46:07.262Z,100342.25
2022-12-03T23:48:34.965Z,100344.13
2022-12-03T23:51:10.320Z,100342.84
2022-12-03T23:53:38.530Z,100342.56
2022-12-03T23:56:11.530Z,100339.97
2022-12-03T23:58:38.900Z,100351.47
